createdAt,value
2018-01-06T00:01:26.833Z,5.80
2018-01-06T00:03:56.553Z,5.80
2018-01-06T00:06:25.616Z,5.80
2018-01-06T00:08:55.479Z,5.80
2018-01-06T00:11:24.499Z,5.80
2018-01-06T00:13:53.701Z,5.80
2018-01-06T00:16:22.703Z,5.80
2018-01-06T00:18:52.509Z,5.80
2018-01-06T00:21:24.131Z,5.70
2018-01-06T00:23:53.142Z,5.70
2018-01-06T00:26:22.158Z,5.70
2018-01-06T00:28:51.898Z,5.60
2018-01-06T00:31:21.661Z,5.60
2018-01-06T00:33:50.687Z,5.60
2018-01-06T00:36:19.661Z,5.50
2018-01-06T00:38:49.412Z,5.50
2018-01-06T00:41:18.380Z,5.50
2018-01-06T00:43:48.137Z,5.50
2018-01-06T00:46:17.133Z,5.40
2018-01-06T00:48:46.116Z,5.50
2018-01-06T00:51:20.226Z,5.50
2018-01-06T00:53:49.206Z,5.40
2018-01-06T00:56:18.174Z,5.40
2018-01-06T00:58:47.921Z,5.30
2018-01-06T01:01:16.876Z,5.30
2018-01-06T01:04:17.334Z,5.30
2018-01-06T01:06:46.364Z,5.30
2018-01-06T01:09:15.346Z,5.30
2018-01-06T01:11:44.309Z,5.30
2018-01-06T01:14:13.347Z,5.30
2018-01-06T01:16:42.296Z,5.30
2018-01-06T01:19:11.239Z,5.30
2018-01-06T01:21:40.246Z,5.30
2018-01-06T01:24:10.064Z,5.30
2018-01-06T01:26:39.137Z,5.20
2018-01-06T01:29:08.080Z,5.30
2018-01-06T01:31:42.157Z,5.20
2018-01-06T01:34:12.271Z,5.20
2018-01-06T01:36:44.621Z,5.10
2018-01-06T01:39:14.344Z,5.10
2018-01-06T01:41:43.762Z,5.10
2018-01-06T01:44:12.749Z,5.10
2018-01-06T01:46:42.468Z,5.20
2018-01-06T01:49:12.253Z,5.20
2018-01-06T01:51:41.192Z,5.10
2018-01-06T01:54:10.187Z,5.20
2018-01-06T01:56:39.180Z,5.10
2018-01-06T01:59:08.124Z,5.10
2018-01-06T02:01:37.099Z,5.10
2018-01-06T02:04:06.107Z,5.10
2018-01-06T02:06:35.086Z,5.10
2018-01-06T02:09:04.248Z,5.00
2018-01-06T02:11:33.240Z,5.00
2018-01-06T02:15:05.412Z,5.00
2018-01-06T02:17:39.518Z,5.00
2018-01-06T02:20:08.493Z,5.00
2018-01-06T02:22:38.259Z,5.00
2018-01-06T02:25:07.267Z,4.90
2018-01-06T02:27:36.214Z,5.00
2018-01-06T02:30:05.156Z,5.00
2018-01-06T02:32:34.117Z,4.90
2018-01-06T02:35:03.080Z,4.90
2018-01-06T02:37:32.007Z,4.90
2018-01-06T02:40:00.978Z,4.80
2018-01-06T02:42:30.029Z,4.80
2018-01-06T02:44:58.997Z,4.80
2018-01-06T02:47:27.942Z,4.80
2018-01-06T02:49:56.989Z,4.80
2018-01-06T02:52:25.989Z,4.80
2018-01-06T02:54:54.994Z,4.80
2018-01-06T02:57:23.967Z,4.80
2018-01-06T02:59:52.953Z,4.80
2018-01-06T03:02:21.975Z,4.80
2018-01-06T03:04:50.931Z,4.70
2018-01-06T03:07:21.785Z,4.70
2018-01-06T03:09:50.768Z,4.70
2018-01-06T03:12:19.738Z,4.70
2018-01-06T03:14:48.698Z,4.70
2018-01-06T03:17:21.540Z,4.60
2018-01-06T03:19:50.488Z,4.60
2018-01-06T03:25:50.694Z,4.60
2018-01-06T03:28:19.689Z,4.60
2018-01-06T03:30:49.545Z,4.60
2018-01-06T03:33:18.605Z,4.50
2018-01-06T03:35:48.344Z,4.60
2018-01-06T03:38:17.269Z,4.50
2018-01-06T03:40:46.215Z,4.60
2018-01-06T03:43:15.907Z,4.60
2018-01-06T03:45:45.668Z,4.60
2018-01-06T03:48:14.681Z,4.50
2018-01-06T03:50:43.634Z,4.60
2018-01-06T03:53:12.604Z,4.60
2018-01-06T03:55:42.346Z,4.60
2018-01-06T03:58:11.267Z,4.50
2018-01-06T04:00:40.225Z,4.50
2018-01-06T04:03:09.505Z,4.50
2018-01-06T04:05:39.228Z,4.60
2018-01-06T04:08:08.322Z,4.60
2018-01-06T04:10:37.350Z,4.60
2018-01-06T04:13:06.541Z,4.60
2018-01-06T04:15:35.487Z,4.60
2018-01-06T04:18:05.260Z,4.60
2018-01-06T04:20:34.252Z,4.50
2018-01-06T04:23:03.940Z,4.60
2018-01-06T04:25:32.934Z,4.60
2018-01-06T04:28:01.931Z,4.60
2018-01-06T04:30:30.856Z,4.60
2018-01-06T04:32:59.791Z,4.60
2018-01-06T04:35:28.821Z,4.60
2018-01-06T04:37:57.826Z,4.60
2018-01-06T04:40:26.849Z,4.60
2018-01-06T04:46:27.828Z,4.50
2018-01-06T04:48:56.885Z,4.50
2018-01-06T04:51:26.151Z,4.50
2018-01-06T04:53:55.135Z,4.50
2018-01-06T04:56:24.090Z,4.50
2018-01-06T04:58:53.048Z,4.50
2018-01-06T05:01:26.598Z,4.50
2018-01-06T05:03:55.543Z,4.40
2018-01-06T05:06:24.513Z,4.40
2018-01-06T05:08:53.472Z,4.30
2018-01-06T05:11:22.420Z,4.40
2018-01-06T05:13:51.364Z,4.30
2018-01-06T05:16:20.312Z,4.30
2018-01-06T05:18:49.596Z,4.30
2018-01-06T05:21:18.629Z,4.20
2018-01-06T05:23:48.353Z,4.30
2018-01-06T05:26:17.339Z,4.20
2018-01-06T05:28:46.360Z,4.20
2018-01-06T05:31:15.335Z,4.30
2018-01-06T05:33:44.372Z,4.20
2018-01-06T05:36:14.068Z,4.20
2018-01-06T05:38:43.440Z,4.20
2018-01-06T05:41:12.413Z,4.20
2018-01-06T05:43:45.520Z,4.20
2018-01-06T05:46:14.496Z,4.20
2018-01-06T05:48:44.217Z,4.20
2018-01-06T05:51:23.783Z,4.10
2018-01-06T05:53:52.753Z,4.30
2018-01-06T05:56:21.878Z,4.20
2018-01-06T05:58:50.804Z,4.20
2018-01-06T06:01:31.737Z,4.20
2018-01-06T06:04:00.709Z,4.10
2018-01-06T06:06:30.533Z,4.10
2018-01-06T06:08:59.510Z,4.00
2018-01-06T06:11:28.570Z,4.10
2018-01-06T06:13:57.588Z,4.00
2018-01-06T06:16:26.881Z,4.10
2018-01-06T06:18:57.332Z,3.90
2018-01-06T06:21:26.308Z,3.90
2018-01-06T06:23:55.288Z,3.80
2018-01-06T06:26:25.039Z,3.90
2018-01-06T06:28:54.004Z,3.80
2018-01-06T06:31:22.989Z,3.90
2018-01-06T06:33:52.699Z,3.90
2018-01-06T06:36:22.444Z,3.90
2018-01-06T06:38:55.845Z,3.80
2018-01-06T06:41:24.793Z,3.80
2018-01-06T06:43:54.577Z,3.70
2018-01-06T06:46:23.673Z,3.70
2018-01-06T06:48:52.687Z,3.70
2018-01-06T06:51:22.470Z,3.70
2018-01-06T06:53:51.496Z,3.60
2018-01-06T06:56:20.577Z,3.50
2018-01-06T06:58:49.760Z,3.50
2018-01-06T07:01:18.992Z,3.50
2018-01-06T07:03:51.772Z,3.40
2018-01-06T07:06:20.921Z,3.40
2018-01-06T07:08:49.945Z,3.40
2018-01-06T07:11:19.812Z,3.40
2018-01-06T07:13:48.791Z,3.30
2018-01-06T07:16:18.643Z,3.30
2018-01-06T07:18:47.654Z,3.30
2018-01-06T07:21:23.441Z,3.30
2018-01-06T07:23:52.452Z,3.10
2018-01-06T07:26:21.483Z,3.10
2018-01-06T07:28:50.525Z,3.10
2018-01-06T07:31:19.772Z,3.00
2018-01-06T07:33:48.816Z,3.10
2018-01-06T07:36:17.865Z,3.10
2018-01-06T07:38:47.348Z,3.30
2018-01-06T07:41:16.396Z,3.30
2018-01-06T07:43:45.411Z,3.50
2018-01-06T07:46:14.456Z,3.70
2018-01-06T07:48:43.451Z,3.80
2018-01-06T07:51:12.460Z,3.90
2018-01-06T07:53:41.756Z,4.00
2018-01-06T07:56:11.492Z,4.00
2018-01-06T07:58:40.537Z,4.00
2018-01-06T08:01:09.656Z,4.00
2018-01-06T08:03:39.499Z,4.00
2018-01-06T08:06:08.608Z,4.00
2018-01-06T08:08:37.757Z,4.20
2018-01-06T08:11:07.568Z,4.30
2018-01-06T08:13:37.388Z,4.30
2018-01-06T08:16:07.177Z,4.30
2018-01-06T08:18:36.236Z,4.20
2018-01-06T08:21:05.476Z,4.40
2018-01-06T08:23:34.550Z,4.50
2018-01-06T08:26:03.569Z,4.40
2018-01-06T08:28:32.629Z,4.40
2018-01-06T08:31:02.013Z,4.50
2018-01-06T08:33:30.999Z,4.50
2018-01-06T08:36:00.177Z,4.40
2018-01-06T08:38:29.178Z,4.40
2018-01-06T08:40:58.207Z,4.40
2018-01-06T08:43:27.224Z,4.50
2018-01-06T08:45:56.242Z,4.50
2018-01-06T08:48:26.009Z,4.60
2018-01-06T08:50:55.040Z,4.50
2018-01-06T08:53:24.929Z,4.70
2018-01-06T08:55:54.808Z,4.80
2018-01-06T08:58:23.859Z,4.70
2018-01-06T09:00:53.750Z,4.90
2018-01-06T09:03:23.616Z,4.70
2018-01-06T09:05:52.565Z,4.70
2018-01-06T09:08:21.635Z,4.80
2018-01-06T09:10:50.858Z,4.70
2018-01-06T09:13:20.004Z,4.80
2018-01-06T09:15:49.962Z,4.90
2018-01-06T09:18:19.341Z,4.80
2018-01-06T09:20:49.293Z,4.90
2018-01-06T09:23:24.006Z,4.90
2018-01-06T09:25:53.028Z,4.90
2018-01-06T09:28:22.741Z,4.90
2018-01-06T09:30:52.668Z,4.90
2018-01-06T09:33:22.542Z,4.90
2018-01-06T09:35:51.581Z,4.90
2018-01-06T09:38:20.620Z,4.90
2018-01-06T09:40:49.689Z,4.90
2018-01-06T09:43:18.698Z,4.90
2018-01-06T09:45:48.474Z,4.90
2018-01-06T09:48:17.678Z,4.90
2018-01-06T09:50:46.775Z,4.90
2018-01-06T09:53:16.088Z,4.80
2018-01-06T09:55:45.108Z,4.80
2018-01-06T09:58:14.183Z,4.90
2018-01-06T10:00:43.243Z,4.90
2018-01-06T10:03:13.068Z,5.10
2018-01-06T10:05:42.895Z,5.20
2018-01-06T10:08:11.980Z,5.20
2018-01-06T10:10:41.846Z,5.50
2018-01-06T10:13:11.847Z,5.80
2018-01-06T10:15:41.001Z,5.70
2018-01-06T10:18:10.017Z,6.00
2018-01-06T10:20:39.115Z,6.00
2018-01-06T10:23:08.141Z,6.00
2018-01-06T10:25:37.216Z,6.00
2018-01-06T10:28:07.895Z,6.00
2018-01-06T10:31:56.469Z,6.10
2018-01-06T10:34:25.679Z,6.10
2018-01-06T10:36:54.879Z,6.40
2018-01-06T10:39:23.921Z,6.60
2018-01-06T10:41:58.144Z,6.50
2018-01-06T10:44:27.960Z,6.80
2018-01-06T10:47:03.948Z,7.10
2018-01-06T10:49:33.219Z,7.00
2018-01-06T10:52:03.045Z,7.10
2018-01-06T10:54:42.848Z,7.10
2018-01-06T10:57:12.667Z,7.20
2018-01-06T10:59:41.864Z,7.20
2018-01-06T11:02:11.151Z,7.20
2018-01-06T11:04:40.220Z,7.10
2018-01-06T11:07:13.529Z,7.10
2018-01-06T11:09:43.475Z,7.10
2018-01-06T11:12:12.619Z,7.10
2018-01-06T11:14:41.973Z,7.20
2018-01-06T11:17:11.989Z,7.00
2018-01-06T11:19:41.648Z,6.90
2018-01-06T11:22:12.765Z,7.10
2018-01-06T11:24:42.280Z,7.10
2018-01-06T11:27:16.022Z,7.10
2018-01-06T11:29:46.716Z,7.00
2018-01-06T11:32:15.911Z,6.90
2018-01-06T11:34:46.689Z,6.90
2018-01-06T11:37:16.910Z,6.90
2018-01-06T11:39:46.303Z,6.80
2018-01-06T11:42:18.330Z,6.80
2018-01-06T11:44:48.775Z,6.70
2018-01-06T11:47:20.736Z,6.70
2018-01-06T11:49:50.864Z,6.70
2018-01-06T11:52:26.950Z,6.70
2018-01-06T11:54:57.928Z,6.80
2018-01-06T11:57:29.749Z,6.70
2018-01-06T11:59:59.930Z,6.70
2018-01-06T12:02:28.981Z,6.70
2018-01-06T12:04:59.145Z,6.70
2018-01-06T12:07:30.912Z,6.60
2018-01-06T12:10:00.964Z,6.60
2018-01-06T12:12:31.119Z,6.70
2018-01-06T12:15:02.189Z,6.90
2018-01-06T12:17:31.353Z,6.80
2018-01-06T12:20:01.549Z,6.80
2018-01-06T12:22:30.641Z,6.80
2018-01-06T12:25:01.779Z,6.80
2018-01-06T12:27:31.694Z,6.70
2018-01-06T12:30:03.449Z,6.70
2018-01-06T12:32:35.129Z,6.70
2018-01-06T12:35:05.686Z,6.90
2018-01-06T12:37:37.781Z,6.90
2018-01-06T12:40:08.430Z,6.90
2018-01-06T12:42:39.826Z,6.90
2018-01-06T12:45:09.709Z,6.90
2018-01-06T12:47:41.653Z,6.90
2018-01-06T12:50:11.536Z,6.90
2018-01-06T12:52:42.861Z,7.00
2018-01-06T12:55:13.729Z,7.00
2018-01-06T12:57:45.264Z,6.90
2018-01-06T13:00:16.940Z,6.80
2018-01-06T13:02:49.336Z,6.70
2018-01-06T13:05:18.823Z,6.70
2018-01-06T13:07:51.180Z,6.70
2018-01-06T13:10:22.952Z,6.60
2018-01-06T13:12:55.846Z,6.70
2018-01-06T13:15:27.446Z,6.60
2018-01-06T13:17:58.196Z,6.60
2018-01-06T13:20:29.443Z,6.60
2018-01-06T13:22:58.859Z,6.70
2018-01-06T13:25:28.901Z,6.70
2018-01-06T13:27:58.454Z,6.80
2018-01-06T13:30:30.374Z,6.80
2018-01-06T13:33:01.328Z,6.70
2018-01-06T13:35:30.887Z,6.80
2018-01-06T13:38:01.618Z,6.80
2018-01-06T13:40:33.823Z,6.80
2018-01-06T13:43:05.094Z,6.80
2018-01-06T13:45:37.452Z,6.80
2018-01-06T13:48:08.567Z,6.80
2018-01-06T13:50:40.799Z,6.80
2018-01-06T13:53:11.741Z,6.70
2018-01-06T13:55:42.839Z,6.60
2018-01-06T13:58:13.016Z,6.60
2018-01-06T14:00:45.416Z,6.60
2018-01-06T14:03:16.134Z,6.60
2018-01-06T14:05:49.245Z,6.50
2018-01-06T14:08:22.348Z,6.40
2018-01-06T14:10:55.806Z,6.50
2018-01-06T14:13:32.109Z,6.40
2018-01-06T14:16:04.843Z,6.30
2018-01-06T14:18:37.952Z,6.30
2018-01-06T14:21:09.339Z,6.30
2018-01-06T14:23:39.471Z,6.20
2018-01-06T14:26:09.400Z,6.20
2018-01-06T14:28:41.959Z,6.10
2018-01-06T14:31:11.679Z,6.20
2018-01-06T14:33:42.509Z,6.10
2018-01-06T14:36:13.741Z,6.10
2018-01-06T14:38:46.669Z,6.00
2018-01-06T14:41:25.365Z,6.10
2018-01-06T14:43:56.972Z,6.10
2018-01-06T14:46:37.936Z,6.10
2018-01-06T14:49:08.458Z,6.00
2018-01-06T14:51:39.511Z,6.00
2018-01-06T14:54:13.610Z,6.00
2018-01-06T14:56:49.065Z,6.00
2018-01-06T14:59:21.659Z,6.00
2018-01-06T15:01:54.938Z,5.90
2018-01-06T15:04:26.122Z,5.80
2018-01-06T15:06:58.856Z,5.80
2018-01-06T15:09:29.727Z,5.90
2018-01-06T15:12:03.068Z,5.90
2018-01-06T15:14:36.543Z,5.90
2018-01-06T15:17:07.220Z,5.90
2018-01-06T15:19:39.464Z,5.80
2018-01-06T15:22:09.859Z,5.90
2018-01-06T15:24:40.799Z,5.80
2018-01-06T15:27:11.580Z,5.70
2018-01-06T15:29:42.868Z,5.70
2018-01-06T15:32:13.004Z,5.70
2018-01-06T15:34:46.604Z,5.70
2018-01-06T15:37:15.863Z,5.70
2018-01-06T15:39:46.609Z,5.60
2018-01-06T15:42:22.887Z,5.60
2018-01-06T15:44:55.911Z,5.60
2018-01-06T15:47:28.236Z,5.40
2018-01-06T15:49:59.524Z,5.40
2018-01-06T15:52:31.832Z,5.40
2018-01-06T15:55:03.800Z,5.40
2018-01-06T15:57:36.984Z,5.50
2018-01-06T16:00:13.676Z,5.50
2018-01-06T16:02:43.632Z,5.50
2018-01-06T16:05:15.887Z,5.50
2018-01-06T16:07:47.649Z,5.40
2018-01-06T16:10:18.329Z,5.40
2018-01-06T16:12:50.363Z,5.40
2018-01-06T16:15:22.249Z,5.40
2018-01-06T16:17:59.165Z,5.40
2018-01-06T16:20:29.731Z,5.40
2018-01-06T16:23:01.311Z,5.40
2018-01-06T16:25:32.604Z,5.30
2018-01-06T16:28:02.765Z,5.30
2018-01-06T16:30:32.561Z,5.30
2018-01-06T16:33:08.161Z,5.20
2018-01-06T16:35:37.637Z,5.20
2018-01-06T16:38:08.502Z,5.10
2018-01-06T16:40:40.104Z,5.20
2018-01-06T16:43:13.236Z,5.20
2018-01-06T16:45:44.429Z,5.20
2018-01-06T16:48:16.302Z,5.20
2018-01-06T16:50:45.990Z,5.20
2018-01-06T16:53:18.181Z,5.20
2018-01-06T16:55:48.788Z,5.10
2018-01-06T16:58:23.181Z,5.10
2018-01-06T17:00:58.144Z,5.00
2018-01-06T17:03:39.391Z,5.00
2018-01-06T17:06:12.690Z,5.10
2018-01-06T17:08:42.484Z,5.10
2018-01-06T17:14:04.193Z,5.10
2018-01-06T17:16:38.022Z,5.10
2018-01-06T17:19:10.838Z,5.00
2018-01-06T17:21:58.052Z,5.10
2018-01-06T17:24:35.356Z,5.10
2018-01-06T17:27:11.118Z,5.10
2018-01-06T17:29:43.943Z,4.90
2018-01-06T17:32:16.408Z,4.90
2018-01-06T17:34:48.568Z,4.80
2018-01-06T17:37:21.422Z,4.90
2018-01-06T17:40:06.298Z,4.90
2018-01-06T17:42:39.687Z,4.90
2018-01-06T17:45:09.317Z,4.80
2018-01-06T17:47:42.675Z,4.90
2018-01-06T17:50:12.898Z,4.80
2018-01-06T17:52:47.497Z,4.80
2018-01-06T17:55:18.688Z,4.80
2018-01-06T17:57:51.634Z,4.80
2018-01-06T18:00:23.634Z,4.80
2018-01-06T18:02:58.812Z,4.90
2018-01-06T18:05:32.014Z,4.80
2018-01-06T18:08:06.541Z,4.90
2018-01-06T18:10:39.565Z,4.90
2018-01-06T18:13:10.366Z,4.90
2018-01-06T18:15:50.286Z,4.90
2018-01-06T18:18:21.719Z,4.90
2018-01-06T18:21:00.444Z,4.80
2018-01-06T18:23:31.702Z,4.80
2018-01-06T18:26:03.886Z,4.70
2018-01-06T18:28:37.252Z,4.60
2018-01-06T18:31:12.449Z,4.60
2018-01-06T18:33:46.039Z,4.60
2018-01-06T18:36:21.832Z,4.50
2018-01-06T18:38:57.706Z,4.50
2018-01-06T18:41:28.399Z,4.50
2018-01-06T18:43:59.751Z,4.60
2018-01-06T18:46:32.392Z,4.60
2018-01-06T18:49:09.991Z,4.60
2018-01-06T18:51:42.734Z,4.60
2018-01-06T18:54:23.981Z,4.60
2018-01-06T18:57:06.648Z,4.60
2018-01-06T18:59:40.561Z,4.50
2018-01-06T19:02:19.886Z,4.50
2018-01-06T19:04:54.372Z,4.40
2018-01-06T19:07:40.157Z,4.40
2018-01-06T19:10:17.557Z,4.30
2018-01-06T19:13:00.171Z,4.40
2018-01-06T19:15:35.754Z,4.50
2018-01-06T19:18:09.538Z,4.50
2018-01-06T19:20:43.468Z,4.50
2018-01-06T19:23:15.420Z,4.40
2018-01-06T19:25:46.424Z,4.40
2018-01-06T19:28:16.618Z,4.40
2018-01-06T19:30:48.649Z,4.40
2018-01-06T19:33:20.153Z,4.40
2018-01-06T19:35:57.107Z,4.40
2018-01-06T19:38:27.214Z,4.40
2018-01-06T19:40:58.043Z,4.30
2018-01-06T19:43:33.980Z,4.30
2018-01-06T19:46:09.643Z,4.40
2018-01-06T19:48:49.830Z,4.40
2018-01-06T19:51:22.996Z,4.30
2018-01-06T19:53:56.516Z,4.30
2018-01-06T19:57:02.128Z,4.40
2018-01-06T19:59:34.865Z,4.50
2018-01-06T20:02:05.022Z,4.40
2018-01-06T20:04:39.725Z,4.40
2018-01-06T20:07:11.605Z,4.30
2018-01-06T20:09:53.034Z,4.30
2018-01-06T20:12:26.434Z,4.30
2018-01-06T20:15:02.903Z,4.30
2018-01-06T20:17:35.284Z,4.30
2018-01-06T20:20:11.144Z,4.30
2018-01-06T20:23:00.334Z,4.30
2018-01-06T20:25:34.108Z,4.40
2018-01-06T20:28:13.437Z,4.40
2018-01-06T20:30:53.430Z,4.50
2018-01-06T20:33:31.432Z,4.40
2018-01-06T20:36:17.693Z,4.30
2018-01-06T20:38:52.042Z,4.30
2018-01-06T20:41:25.318Z,4.30
2018-01-06T20:44:01.169Z,4.40
2018-01-06T20:46:34.533Z,4.50
2018-01-06T20:49:08.760Z,4.40
2018-01-06T20:51:50.874Z,4.50
2018-01-06T20:54:24.268Z,4.50
2018-01-06T20:59:38.014Z,4.50
2018-01-06T21:02:11.759Z,4.40
2018-01-06T21:04:48.777Z,4.30
2018-01-06T21:07:19.140Z,4.30
2018-01-06T21:09:54.263Z,4.30
2018-01-06T21:12:31.309Z,4.20
2018-01-06T21:15:02.600Z,4.20
2018-01-06T21:17:35.475Z,4.20
2018-01-06T21:20:07.135Z,4.20
2018-01-06T21:22:36.425Z,4.20
2018-01-06T21:25:09.568Z,4.30
2018-01-06T21:27:42.397Z,4.20
2018-01-06T21:30:16.419Z,4.30
2018-01-06T21:32:52.978Z,4.30
2018-01-06T21:35:23.987Z,4.30
2018-01-06T21:38:12.769Z,4.30
2018-01-06T21:40:45.850Z,4.30
2018-01-06T21:43:24.457Z,4.30
2018-01-06T21:46:01.242Z,4.30
2018-01-06T21:48:33.272Z,4.20
2018-01-06T21:51:23.544Z,4.20
2018-01-06T21:54:01.021Z,4.20
2018-01-06T21:56:31.189Z,4.10
2018-01-06T21:59:04.206Z,4.10
2018-01-06T22:01:34.283Z,4.10
2018-01-06T22:04:04.753Z,4.10
2018-01-06T22:06:46.327Z,4.10
2018-01-06T22:09:18.181Z,4.20
2018-01-06T22:11:56.792Z,4.10
2018-01-06T22:14:37.297Z,4.10
2018-01-06T22:17:13.438Z,4.20
2018-01-06T22:19:53.802Z,4.20
2018-01-06T22:22:27.128Z,4.10
2018-01-06T22:24:59.672Z,4.00
2018-01-06T22:27:35.199Z,4.00
2018-01-06T22:30:05.949Z,4.00
2018-01-06T22:32:42.248Z,4.00
2018-01-06T22:35:20.419Z,4.00
2018-01-06T22:37:51.812Z,4.00
2018-01-06T22:40:22.949Z,4.00
2018-01-06T22:42:56.303Z,3.90
2018-01-06T22:45:33.006Z,3.90
2018-01-06T22:48:06.915Z,3.90
2018-01-06T22:50:36.915Z,3.80
2018-01-06T22:53:12.248Z,3.80
2018-01-06T22:55:46.701Z,3.70
2018-01-06T22:58:17.553Z,3.80
2018-01-06T23:00:51.830Z,3.80
2018-01-06T23:03:21.231Z,3.70
2018-01-06T23:05:59.110Z,3.80
2018-01-06T23:08:31.463Z,3.70
2018-01-06T23:11:01.861Z,3.80
2018-01-06T23:13:32.422Z,3.80
2018-01-06T23:16:04.399Z,3.80
2018-01-06T23:18:38.853Z,3.80
2018-01-06T23:21:12.323Z,3.80
2018-01-06T23:23:45.980Z,3.80
2018-01-06T23:26:20.145Z,3.90
2018-01-06T23:28:53.333Z,3.80
2018-01-06T23:31:25.208Z,3.80
2018-01-06T23:33:55.840Z,3.80
2018-01-06T23:36:27.668Z,3.80
2018-01-06T23:38:58.095Z,3.80
2018-01-06T23:41:29.594Z,3.80
2018-01-06T23:43:59.941Z,3.80
2018-01-06T23:46:30.553Z,3.80
2018-01-06T23:49:00.438Z,3.80
2018-01-06T23:51:30.732Z,3.80
2018-01-06T23:53:59.784Z,3.80
2018-01-06T23:56:29.136Z,3.70
2018-01-06T23:58:59.488Z,3.70
